createdAt,value
2018-05-24T00:01:24.840Z,95666.79
2018-05-24T00:03:53.263Z,95674.57
2018-05-24T00:06:21.684Z,95670.14
2018-05-24T00:08:50.924Z,95666.50
2018-05-24T00:11:19.343Z,95658.13
2018-05-24T00:13:47.792Z,95660.17
2018-05-24T00:16:16.222Z,95663.70
2018-05-24T00:18:44.666Z,95662.83
2018-05-24T00:21:13.094Z,95663.94
2018-05-24T00:23:41.553Z,95663.73
2018-05-24T00:26:09.998Z,95666.83
2018-05-24T00:28:38.469Z,95669.63
2018-05-24T00:31:06.896Z,95667.52
2018-05-24T00:33:35.368Z,95670.58
2018-05-24T00:36:03.806Z,95673.84
2018-05-24T00:38:32.252Z,95684.61
2018-05-24T00:41:00.667Z,95677.25
2018-05-24T00:43:29.129Z,95680.40
2018-05-24T00:45:57.585Z,95684.53
2018-05-24T00:48:26.033Z,95688.36
2018-05-24T00:50:54.481Z,95673.72
2018-05-24T00:53:22.932Z,95670.36
2018-05-24T00:55:51.355Z,95676.34
2018-05-24T00:58:19.821Z,95673.70
2018-05-24T01:00:48.259Z,95678.24
2018-05-24T01:03:16.706Z,95679.55
2018-05-24T01:05:45.123Z,95667.50
2018-05-24T01:08:13.592Z,95666.45
2018-05-24T01:10:42.052Z,95670.73
2018-05-24T01:13:10.487Z,95677.95
2018-05-24T01:15:38.916Z,95680.52
2018-05-24T01:18:07.384Z,95687.27
2018-05-24T01:20:35.804Z,95684.35
2018-05-24T01:23:04.250Z,95680.92
2018-05-24T01:25:32.680Z,95683.99
2018-05-24T01:28:01.157Z,95681.02
2018-05-24T01:30:29.597Z,95683.61
2018-05-24T01:32:58.827Z,95692.77
2018-05-24T01:35:27.249Z,95688.09
2018-05-24T01:37:55.708Z,95680.20
2018-05-24T01:40:24.154Z,95675.39
2018-05-24T01:42:53.368Z,95663.16
2018-05-24T01:45:21.795Z,95657.23
2018-05-24T01:47:50.247Z,95651.44
2018-05-24T01:50:19.425Z,95647.16
2018-05-24T01:52:47.903Z,95644.14
2018-05-24T01:55:17.114Z,95642.29
2018-05-24T01:57:45.533Z,95639.94
2018-05-24T02:00:14.095Z,95641.98
2018-05-24T02:02:42.426Z,95637.14
2018-05-24T02:05:10.877Z,95634.30
2018-05-24T02:07:39.330Z,95638.31
2018-05-24T02:10:08.549Z,95632.04
2018-05-24T02:12:36.964Z,95639.39
2018-05-24T02:15:05.415Z,95631.88
2018-05-24T02:17:33.871Z,95642.10
2018-05-24T02:20:03.112Z,95640.16
2018-05-24T02:22:31.537Z,95646.83
2018-05-24T02:25:00.001Z,95648.48
2018-05-24T02:27:28.460Z,95637.58
2018-05-24T02:29:56.920Z,95635.30
2018-05-24T02:32:26.133Z,95634.86
2018-05-24T02:34:55.357Z,95635.19
2018-05-24T02:37:23.810Z,95630.34
2018-05-24T02:39:53.053Z,95632.13
2018-05-24T02:42:21.519Z,95635.59
2018-05-24T02:44:49.964Z,95639.19
2018-05-24T02:47:18.403Z,95642.75
2018-05-24T02:49:47.639Z,95640.45
2018-05-24T02:52:16.141Z,95642.58
2018-05-24T02:54:44.609Z,95642.40
2018-05-24T02:57:13.043Z,95640.66
2018-05-24T02:59:41.480Z,95639.14
2018-05-24T03:02:09.909Z,95633.02
2018-05-24T03:04:38.375Z,95635.52
2018-05-24T03:07:07.564Z,95635.09
2018-05-24T03:09:36.021Z,95636.05
2018-05-24T03:12:04.455Z,95634.34
2018-05-24T03:14:33.683Z,95625.16
2018-05-24T03:17:02.134Z,95625.45
2018-05-24T03:19:31.371Z,95619.06
2018-05-24T03:21:59.801Z,95635.14
2018-05-24T03:24:28.250Z,95629.45
2018-05-24T03:26:56.699Z,95637.16
2018-05-24T03:29:25.154Z,95644.75
2018-05-24T03:31:53.566Z,95652.55
2018-05-24T03:34:22.759Z,95645.30
2018-05-24T03:36:51.976Z,95650.17
2018-05-24T03:39:20.400Z,95647.23
2018-05-24T03:41:48.866Z,95650.44
2018-05-24T03:44:17.288Z,95654.05
2018-05-24T03:46:45.741Z,95657.25
2018-05-24T03:49:14.177Z,95652.98
2018-05-24T03:51:43.390Z,95651.44
2018-05-24T03:54:11.831Z,95657.24
2018-05-24T03:56:40.295Z,95635.52
2018-05-24T04:02:56.671Z,95649.10
2018-05-24T04:05:25.118Z,95650.25
2018-05-24T04:07:53.534Z,95646.11
2018-05-24T04:10:21.968Z,95646.89
2018-05-24T04:12:50.372Z,95644.41
2018-05-24T04:15:18.821Z,95641.91
2018-05-24T04:17:47.231Z,95641.25
2018-05-24T04:20:15.635Z,95648.80
2018-05-24T04:22:44.847Z,95649.61
2018-05-24T04:25:13.259Z,95650.22
2018-05-24T04:27:41.688Z,95648.87
2018-05-24T04:30:10.093Z,95647.42
2018-05-24T04:32:39.295Z,95645.94
2018-05-24T04:35:08.469Z,95646.56
2018-05-24T04:37:36.923Z,95655.11
2018-05-24T04:40:05.365Z,95664.48
2018-05-24T04:42:33.856Z,95661.52
2018-05-24T04:45:02.275Z,95662.30
2018-05-24T04:47:30.757Z,95669.73
2018-05-24T04:49:59.163Z,95673.73
2018-05-24T04:52:27.632Z,95677.17
2018-05-24T04:54:56.090Z,95685.36
2018-05-24T04:57:24.666Z,95681.14
2018-05-24T04:59:53.087Z,95680.37
2018-05-24T05:02:21.588Z,95686.99
2018-05-24T05:04:50.012Z,95684.52
2018-05-24T05:07:19.234Z,95691.31
2018-05-24T05:09:47.654Z,95691.50
2018-05-24T05:12:16.084Z,95690.38
2018-05-24T05:14:45.373Z,95694.13
2018-05-24T05:17:14.491Z,95692.73
2018-05-24T05:19:43.667Z,95700.05
2018-05-24T05:22:12.102Z,95702.53
2018-05-24T05:24:40.506Z,95700.84
2018-05-24T05:27:08.945Z,95710.63
2018-05-24T05:29:37.369Z,95710.91
2018-05-24T05:32:05.815Z,95707.91
2018-05-24T05:34:34.238Z,95709.72
2018-05-24T05:37:02.683Z,95715.83
2018-05-24T05:39:31.094Z,95721.20
2018-05-24T05:41:59.543Z,95730.70
2018-05-24T05:44:28.722Z,95738.72
2018-05-24T05:46:57.167Z,95733.47
2018-05-24T05:49:25.575Z,95732.78
2018-05-24T05:51:54.022Z,95729.84
2018-05-24T05:54:22.456Z,95726.39
2018-05-24T05:56:50.891Z,95721.97
2018-05-24T05:59:19.302Z,95732.69
2018-05-24T06:01:47.763Z,95731.13
2018-05-24T06:04:16.192Z,95737.29
2018-05-24T06:06:44.640Z,95729.20
2018-05-24T06:09:13.076Z,95731.51
2018-05-24T06:11:41.491Z,95726.09
2018-05-24T06:14:09.943Z,95720.98
2018-05-24T06:16:38.365Z,95715.38
2018-05-24T06:19:06.807Z,95714.66
2018-05-24T06:21:35.370Z,95719.66
2018-05-24T06:24:04.531Z,95720.19
2018-05-24T06:26:32.956Z,95724.49
2018-05-24T06:29:01.417Z,95723.65
2018-05-24T06:31:29.835Z,95727.10
2018-05-24T06:33:58.299Z,95725.35
2018-05-24T06:36:26.746Z,95731.97
2018-05-24T06:38:55.225Z,95733.66
2018-05-24T06:41:24.424Z,95737.30
2018-05-24T06:43:52.905Z,95743.09
2018-05-24T06:46:22.210Z,95748.84
2018-05-24T06:48:51.361Z,95747.41
2018-05-24T06:51:19.798Z,95751.14
2018-05-24T06:53:48.316Z,95757.17
2018-05-24T06:56:17.460Z,95759.38
2018-05-24T06:58:46.579Z,95754.38
2018-05-24T07:01:15.768Z,95757.48
2018-05-24T07:03:44.230Z,95761.66
2018-05-24T07:06:12.658Z,95757.38
2018-05-24T07:08:41.865Z,95757.24
2018-05-24T07:11:10.355Z,95754.55
2018-05-24T07:13:38.776Z,95747.16
2018-05-24T07:16:07.200Z,95749.16
2018-05-24T07:18:35.685Z,95756.92
2018-05-24T07:21:04.100Z,95755.48
2018-05-24T07:23:32.549Z,95748.27
2018-05-24T07:26:00.992Z,95753.59
2018-05-24T07:28:29.430Z,95756.22
2018-05-24T07:30:58.609Z,95754.50
2018-05-24T07:33:27.068Z,95755.73
2018-05-24T07:35:55.486Z,95758.45
2018-05-24T07:38:23.952Z,95757.80
2018-05-24T07:40:52.376Z,95760.58
2018-05-24T07:43:21.597Z,95756.69
2018-05-24T07:45:50.026Z,95755.16
2018-05-24T07:48:18.481Z,95754.63
2018-05-24T07:50:46.899Z,95747.85
2018-05-24T07:53:15.372Z,95752.02
2018-05-24T07:55:43.794Z,95742.05
2018-05-24T07:58:13.061Z,95741.37
2018-05-24T08:00:41.486Z,95734.03
2018-05-24T08:03:10.718Z,95743.59
2018-05-24T08:05:39.179Z,95736.85
2018-05-24T08:08:08.432Z,95738.23
2018-05-24T08:10:36.876Z,95739.03
2018-05-24T08:13:05.333Z,95738.76
2018-05-24T08:15:34.520Z,95737.67
2018-05-24T08:18:02.979Z,95736.34
2018-05-24T08:20:31.407Z,95734.84
2018-05-24T08:22:59.810Z,95729.05
2018-05-24T08:25:28.283Z,95737.52
2018-05-24T08:27:57.485Z,95730.24
2018-05-24T08:30:26.700Z,95730.19
2018-05-24T08:32:55.116Z,95725.12
2018-05-24T08:35:23.579Z,95729.58
2018-05-24T08:37:52.000Z,95723.41
2018-05-24T08:40:20.448Z,95717.83
2018-05-24T08:42:48.868Z,95715.36
2018-05-24T08:45:17.440Z,95720.09
2018-05-24T08:47:45.865Z,95721.45
2018-05-24T08:50:15.078Z,95720.47
2018-05-24T08:52:44.272Z,95713.92
2018-05-24T08:55:12.718Z,95712.59
2018-05-24T08:57:41.167Z,95705.30
2018-05-24T09:00:09.610Z,95706.11
2018-05-24T09:02:38.057Z,95707.79
2018-05-24T09:05:06.518Z,95698.86
2018-05-24T09:07:34.974Z,95699.16
2018-05-24T09:10:03.428Z,95705.09
2018-05-24T09:12:31.893Z,95701.99
2018-05-24T09:15:00.343Z,95707.98
2018-05-24T09:17:29.545Z,95714.10
2018-05-24T09:19:58.760Z,95718.19
2018-05-24T09:22:27.995Z,95710.59
2018-05-24T09:24:56.442Z,95708.35
2018-05-24T09:27:25.690Z,95706.28
2018-05-24T09:29:54.139Z,95705.17
2018-05-24T09:32:22.697Z,95697.73
2018-05-24T09:34:51.923Z,95695.48
2018-05-24T09:37:20.452Z,95694.55
2018-05-24T09:39:48.896Z,95689.00
2018-05-24T09:42:17.414Z,95689.44
2018-05-24T09:44:45.788Z,95679.15
2018-05-24T09:47:14.338Z,95680.02
2018-05-24T09:49:43.536Z,95676.77
2018-05-24T09:52:12.715Z,95675.11
2018-05-24T09:54:41.169Z,95678.69
2018-05-24T09:57:09.584Z,95671.17
2018-05-24T09:59:38.027Z,95672.89
2018-05-24T10:02:06.437Z,95678.67
2018-05-24T10:04:34.958Z,95674.19
2018-05-24T10:07:03.331Z,95677.09
2018-05-24T10:09:31.795Z,95671.29
2018-05-24T10:12:00.206Z,95674.62
2018-05-24T10:14:29.432Z,95672.73
2018-05-24T10:16:58.604Z,95679.47
2018-05-24T10:19:27.064Z,95669.74
2018-05-24T10:21:55.474Z,95670.98
2018-05-24T10:24:23.943Z,95671.31
2018-05-24T10:26:52.364Z,95676.05
2018-05-24T10:29:21.638Z,95674.70
2018-05-24T10:31:50.035Z,95674.49
2018-05-24T10:34:19.224Z,95668.62
2018-05-24T10:36:47.697Z,95669.20
2018-05-24T10:39:16.118Z,95663.55
2018-05-24T10:41:45.328Z,95667.76
2018-05-24T10:44:14.512Z,95669.63
2018-05-24T10:46:42.970Z,95660.09
2018-05-24T10:49:11.967Z,95672.66
2018-05-24T10:51:40.420Z,95673.38
2018-05-24T10:54:08.876Z,95678.98
2018-05-24T10:56:37.438Z,95677.69
2018-05-24T10:59:06.573Z,95681.65
2018-05-24T11:01:35.451Z,95675.70
2018-05-24T11:04:04.641Z,95678.38
2018-05-24T11:06:33.102Z,95681.23
2018-05-24T11:09:01.525Z,95681.97
2018-05-24T11:11:30.756Z,95683.88
2018-05-24T11:13:59.191Z,95684.39
2018-05-24T11:16:28.220Z,95691.27
2018-05-24T11:18:57.385Z,95696.98
2018-05-24T11:21:25.840Z,95696.50
2018-05-24T11:23:54.235Z,95679.93
2018-05-24T11:26:22.756Z,95680.72
2018-05-24T11:28:51.119Z,95677.08
2018-05-24T11:31:19.577Z,95677.13
2018-05-24T11:33:47.988Z,95676.44
2018-05-24T11:36:16.434Z,95678.22
2018-05-24T11:38:44.864Z,95669.65
2018-05-24T11:41:13.314Z,95665.38
2018-05-24T11:43:41.728Z,95664.52
2018-05-24T11:46:10.176Z,95669.75
2018-05-24T11:48:38.608Z,95664.15
2018-05-24T11:51:07.083Z,95657.40
2018-05-24T11:53:35.515Z,95661.02
2018-05-24T11:56:03.970Z,95656.11
2018-05-24T11:58:33.147Z,95643.02
2018-05-24T12:01:02.505Z,95639.23
2018-05-24T12:03:30.906Z,95636.34
2018-05-24T12:05:59.355Z,95638.05
2018-05-24T12:08:28.531Z,95638.23
2018-05-24T12:10:56.973Z,95634.34
2018-05-24T12:13:25.390Z,95640.38
2018-05-24T12:15:53.846Z,95646.83
2018-05-24T12:18:22.257Z,95651.56
2018-05-24T12:20:50.705Z,95653.06
2018-05-24T12:23:19.888Z,95663.84
2018-05-24T12:25:49.158Z,95663.73
2018-05-24T12:28:17.578Z,95668.41
2018-05-24T12:30:46.006Z,95664.61
2018-05-24T12:33:14.473Z,95665.49
2018-05-24T12:35:42.981Z,95648.70
2018-05-24T12:38:11.395Z,95640.50
2018-05-24T12:40:39.825Z,95637.19
2018-05-24T12:43:08.275Z,95646.69
2018-05-24T12:45:37.456Z,95637.33
2018-05-24T12:48:05.903Z,95642.55
2018-05-24T12:50:34.315Z,95642.86
2018-05-24T12:53:02.783Z,95639.59
2018-05-24T12:55:31.198Z,95645.60
2018-05-24T12:57:59.641Z,95637.01
2018-05-24T13:00:28.054Z,95634.03
2018-05-24T13:02:56.518Z,95641.80
2018-05-24T13:05:24.930Z,95647.83
2018-05-24T13:07:53.393Z,95647.67
2018-05-24T13:10:22.156Z,95657.06
2018-05-24T13:12:50.602Z,95663.97
2018-05-24T13:15:19.784Z,95664.92
2018-05-24T13:17:48.243Z,95662.25
2018-05-24T13:20:16.655Z,95661.66
2018-05-24T13:22:45.108Z,95663.39
2018-05-24T13:25:13.511Z,95660.57
2018-05-24T13:27:41.967Z,95652.41
2018-05-24T13:30:10.401Z,95643.29
2018-05-24T13:32:38.843Z,95631.86
2018-05-24T13:35:07.263Z,95630.90
2018-05-24T13:37:35.798Z,95632.94
2018-05-24T13:40:04.252Z,95620.54
2018-05-24T13:42:33.524Z,95622.95
2018-05-24T13:45:01.958Z,95626.42
2018-05-24T13:47:30.429Z,95630.61
2018-05-24T13:49:59.599Z,95631.17
2018-05-24T13:52:28.127Z,95620.22
2018-05-24T13:54:57.301Z,95619.72
2018-05-24T13:57:46.447Z,95607.90
2018-05-24T14:00:14.852Z,95610.61
2018-05-24T14:02:43.285Z,95621.11
2018-05-24T14:05:11.678Z,95620.87
2018-05-24T14:07:40.164Z,95606.06
2018-05-24T14:10:08.590Z,95600.61
2018-05-24T14:12:37.020Z,95592.95
2018-05-24T14:15:05.461Z,95593.20
2018-05-24T14:17:33.939Z,95593.79
2018-05-24T14:20:02.335Z,95589.41
2018-05-24T14:22:31.565Z,95588.59
2018-05-24T14:24:59.980Z,95595.57
2018-05-24T14:27:28.438Z,95589.00
2018-05-24T14:29:56.834Z,95594.22
2018-05-24T14:32:25.324Z,95594.91
2018-05-24T14:34:53.735Z,95596.73
2018-05-24T14:37:22.179Z,95594.30
2018-05-24T14:39:50.581Z,95590.82
2018-05-24T14:42:19.016Z,95591.11
2018-05-24T14:44:48.185Z,95593.25
2018-05-24T14:47:16.637Z,95591.22
2018-05-24T14:49:45.034Z,95594.44
2018-05-24T14:52:13.435Z,95605.63
2018-05-24T14:54:41.876Z,95608.97
2018-05-24T14:57:10.273Z,95599.55
2018-05-24T14:59:38.704Z,95612.33
2018-05-24T15:02:07.113Z,95607.02
2018-05-24T15:04:35.532Z,95606.66
2018-05-24T15:07:03.931Z,95601.63
2018-05-24T15:09:32.357Z,95599.30
2018-05-24T15:12:01.522Z,95601.05
2018-05-24T15:14:29.956Z,95608.30
2018-05-24T15:16:58.540Z,95619.30
2018-05-24T15:19:26.988Z,95614.44
2018-05-24T15:21:55.413Z,95621.16
2018-05-24T15:24:23.877Z,95625.45
2018-05-24T15:26:53.062Z,95624.67
2018-05-24T15:29:21.501Z,95621.05
2018-05-24T15:31:49.934Z,95625.98
2018-05-24T15:34:18.394Z,95613.92
2018-05-24T15:36:46.823Z,95619.44
2018-05-24T15:39:16.028Z,95625.29
2018-05-24T15:41:44.469Z,95627.09
2018-05-24T15:44:12.924Z,95625.63
2018-05-24T15:46:41.360Z,95620.75
2018-05-24T15:49:09.821Z,95618.34
2018-05-24T15:51:38.236Z,95618.97
2018-05-24T15:54:07.482Z,95614.37
2018-05-24T15:56:35.915Z,95606.45
2018-05-24T15:59:05.319Z,95603.74
2018-05-24T16:01:33.740Z,95598.25
2018-05-24T16:04:02.194Z,95606.92
2018-05-24T16:06:30.616Z,95603.63
2018-05-24T16:08:59.089Z,95602.34
2018-05-24T16:11:27.529Z,95601.20
2018-05-24T16:13:56.019Z,95603.86
2018-05-24T16:16:24.443Z,95612.52
2018-05-24T16:18:52.886Z,95615.31
2018-05-24T16:21:21.295Z,95619.77
2018-05-24T16:23:50.505Z,95619.84
2018-05-24T16:26:18.926Z,95618.81
2018-05-24T16:28:47.363Z,95621.05
2018-05-24T16:31:16.541Z,95619.55
2018-05-24T16:33:44.972Z,95616.57
2018-05-24T16:36:13.372Z,95618.63
2018-05-24T16:38:41.802Z,95614.39
2018-05-24T16:41:10.216Z,95607.52
2018-05-24T16:43:38.629Z,95616.21
2018-05-24T16:46:07.078Z,95623.73
2018-05-24T16:48:36.302Z,95625.58
2018-05-24T16:51:04.715Z,95632.11
2018-05-24T16:53:33.123Z,95638.73
2018-05-24T16:56:01.571Z,95633.64
2018-05-24T16:58:29.972Z,95624.41
2018-05-24T17:00:58.428Z,95623.36
2018-05-24T17:03:27.599Z,95616.63
2018-05-24T17:05:56.810Z,95615.32
2018-05-24T17:08:25.993Z,95614.12
2018-05-24T17:10:55.211Z,95611.88
2018-05-24T17:13:24.395Z,95614.94
2018-05-24T17:15:53.624Z,95618.17
2018-05-24T17:18:22.047Z,95613.39
2018-05-24T17:20:50.496Z,95601.14
2018-05-24T17:23:18.943Z,95598.72
2018-05-24T17:25:47.390Z,95603.58
2018-05-24T17:28:15.818Z,95607.49
2018-05-24T17:30:44.259Z,95602.63
2018-05-24T17:33:12.676Z,95604.08
2018-05-24T17:35:41.126Z,95603.27
2018-05-24T17:38:09.551Z,95602.32
2018-05-24T17:40:38.004Z,95605.44
2018-05-24T17:43:06.442Z,95598.88
2018-05-24T17:45:35.667Z,95596.72
2018-05-24T17:48:04.083Z,95596.09
2018-05-24T17:50:32.537Z,95590.84
2018-05-24T17:53:00.956Z,95599.62
2018-05-24T17:55:29.409Z,95604.89
2018-05-24T17:57:57.836Z,95603.55
2018-05-24T18:00:26.295Z,95603.41
2018-05-24T18:02:54.734Z,95607.31
2018-05-24T18:05:23.939Z,95602.45
2018-05-24T18:07:52.412Z,95605.55
2018-05-24T18:10:21.632Z,95610.65
2018-05-24T18:12:50.090Z,95613.36
2018-05-24T18:15:18.537Z,95612.12
2018-05-24T18:17:46.981Z,95603.92
2018-05-24T18:20:16.209Z,95611.39
2018-05-24T18:22:44.627Z,95608.45
2018-05-24T18:25:13.069Z,95612.19
2018-05-24T18:27:41.489Z,95612.08
2018-05-24T18:30:09.956Z,95611.84
2018-05-24T18:32:38.401Z,95611.03
2018-05-24T18:35:07.623Z,95607.82
2018-05-24T18:37:36.044Z,95602.20
2018-05-24T18:40:04.520Z,95621.34
2018-05-24T18:42:33.008Z,95619.06
2018-05-24T18:45:01.433Z,95626.47
2018-05-24T18:47:30.670Z,95622.05
2018-05-24T18:49:59.087Z,95630.80
2018-05-24T18:52:27.547Z,95625.69
2018-05-24T18:54:55.966Z,95628.52
2018-05-24T18:57:24.429Z,95628.14
2018-05-24T18:59:52.886Z,95623.41
2018-05-24T19:02:22.242Z,95629.78
2018-05-24T19:04:50.656Z,95620.59
2018-05-24T19:07:19.955Z,95622.51
2018-05-24T19:09:49.141Z,95619.94
2018-05-24T19:12:17.601Z,95620.76
2018-05-24T19:14:46.028Z,95629.00
2018-05-24T19:17:15.256Z,95637.07
2018-05-24T19:19:43.673Z,95640.58
2018-05-24T19:22:12.152Z,95645.94
2018-05-24T19:24:40.572Z,95649.44
2018-05-24T19:27:09.019Z,95655.87
2018-05-24T19:29:37.443Z,95656.30
2018-05-24T19:32:06.692Z,95649.28
2018-05-24T19:34:35.132Z,95649.81
2018-05-24T19:37:04.361Z,95656.70
2018-05-24T19:39:32.944Z,95662.61
2018-05-24T19:42:01.397Z,95662.20
2018-05-24T19:44:29.818Z,95672.19
2018-05-24T19:46:58.336Z,95669.34
2018-05-24T19:49:26.771Z,95666.78
2018-05-24T19:51:55.978Z,95670.05
2018-05-24T19:54:25.162Z,95675.69
2018-05-24T19:56:53.619Z,95680.66
2018-05-24T19:59:22.046Z,95685.80
2018-05-24T20:01:50.520Z,95682.55
2018-05-24T20:04:19.700Z,95690.62
2018-05-24T20:06:48.152Z,95685.11
2018-05-24T20:09:16.581Z,95695.17
2018-05-24T20:11:45.032Z,95693.44
2018-05-24T20:14:13.463Z,95685.36
2018-05-24T20:16:42.691Z,95698.12
2018-05-24T20:19:11.101Z,95689.80
2018-05-24T20:21:39.570Z,95690.61
2018-05-24T20:24:07.975Z,95693.83
2018-05-24T20:26:36.453Z,95694.38
2018-05-24T20:29:04.881Z,95705.71
2018-05-24T20:31:33.328Z,95707.06
2018-05-24T20:34:01.738Z,95701.84
2018-05-24T20:36:30.178Z,95698.22
2018-05-24T20:38:58.591Z,95691.76
2018-05-24T20:41:27.075Z,95699.39
2018-05-24T20:43:55.491Z,95695.64
2018-05-24T20:46:24.670Z,95695.92
2018-05-24T20:48:53.109Z,95695.23
2018-05-24T20:51:21.508Z,95671.64
2018-05-24T20:53:49.952Z,95701.03
2018-05-24T20:56:19.146Z,95693.89
2018-05-24T20:58:47.589Z,95693.51
2018-05-24T21:01:16.007Z,95696.70
2018-05-24T21:03:45.222Z,95691.31
2018-05-24T21:06:13.639Z,95689.02
2018-05-24T21:08:42.072Z,95685.38
2018-05-24T21:11:10.506Z,95679.72
2018-05-24T21:13:38.978Z,95684.70
2018-05-24T21:16:08.139Z,95688.35
2018-05-24T21:18:37.435Z,95684.96
2018-05-24T21:21:05.842Z,95689.14
2018-05-24T21:23:35.052Z,95694.77
2018-05-24T21:26:04.225Z,95690.04
2018-05-24T21:28:32.669Z,95680.58
2018-05-24T21:31:01.075Z,95689.96
2018-05-24T21:33:29.519Z,95684.68
2018-05-24T21:35:57.923Z,95682.37
2018-05-24T21:38:26.368Z,95684.11
2018-05-24T21:40:55.546Z,95690.92
2018-05-24T21:43:23.984Z,95683.66
2018-05-24T21:45:52.394Z,95688.58
2018-05-24T21:48:22.667Z,95684.77
2018-05-24T21:50:51.062Z,95686.20
2018-05-24T21:53:20.258Z,95695.06
2018-05-24T21:55:49.494Z,95692.42
2018-05-24T21:58:17.927Z,95693.08
2018-05-24T22:00:51.261Z,95690.77
2018-05-24T22:03:19.707Z,95693.86
2018-05-24T22:05:48.114Z,95694.92
2018-05-24T22:08:17.359Z,95696.97
2018-05-24T22:10:45.761Z,95696.33
2018-05-24T22:13:14.189Z,95696.73
2018-05-24T22:15:42.604Z,95697.17
2018-05-24T22:18:11.033Z,95691.78
2018-05-24T22:20:39.441Z,95703.72
2018-05-24T22:23:07.885Z,95697.25
2018-05-24T22:25:36.294Z,95704.09
2018-05-24T22:28:05.490Z,95708.77
2018-05-24T22:30:33.901Z,95713.16
2018-05-24T22:33:02.340Z,95710.37
2018-05-24T22:35:30.741Z,95712.53
2018-05-24T22:37:59.179Z,95713.61
2018-05-24T22:40:27.586Z,95718.53
2018-05-24T22:42:56.023Z,95710.05
2018-05-24T22:45:24.428Z,95705.88
2018-05-24T22:47:52.930Z,95713.70
2018-05-24T22:50:21.300Z,95711.19
2018-05-24T22:52:49.748Z,95711.36
2018-05-24T22:55:18.915Z,95707.61
2018-05-24T22:57:47.322Z,95702.33
2018-05-24T23:00:16.524Z,95709.73
2018-05-24T23:02:44.953Z,95700.88
2018-05-24T23:05:13.421Z,95697.59
2018-05-24T23:07:41.876Z,95698.12
2018-05-24T23:10:11.078Z,95692.97
2018-05-24T23:12:40.244Z,95683.49
2018-05-24T23:15:08.679Z,95679.67
2018-05-24T23:17:37.863Z,95680.03
2018-05-24T23:20:06.297Z,95673.39
2018-05-24T23:22:39.595Z,95671.63
2018-05-24T23:25:08.086Z,95675.34
2018-05-24T23:27:36.490Z,95673.70
2018-05-24T23:30:04.939Z,95676.67
2018-05-24T23:32:33.384Z,95666.70
2018-05-24T23:35:02.591Z,95673.81
2018-05-24T23:37:31.802Z,95667.42
2018-05-24T23:40:01.019Z,95667.38
2018-05-24T23:42:29.445Z,95667.27
2018-05-24T23:44:57.923Z,95669.27
2018-05-24T23:47:26.327Z,95673.34
2018-05-24T23:49:54.758Z,95669.70
2018-05-24T23:52:23.218Z,95671.16
2018-05-24T23:54:52.411Z,95672.63
2018-05-24T23:57:20.811Z,95678.09
2018-05-24T23:59:49.244Z,95684.83
